Time;durP1;ratioP1;P1;durP2;ratioP2;P2;SDS_P1;SDS_P2;PMS_P1;PMS_P2;Temp;Humidity;BMP_temperature;BMP_pressure;BME280_temperature;BME280_humidity;BME280_pressure;Samples;Min_cycle;Max_cycle;Signal;HPM_P1;HPM_P2
2022/07/09 00:01:43;;;;;;;2.25;1.10;;;;;;;26.42;34.18;101764.94;4988280;28;20065;-82
2022/07/09 00:04:10;;;;;;;2.60;1.10;;;;;;;26.41;34.07;101771.47;4988390;28;20064;-81
2022/07/09 00:06:37;;;;;;;0.73;0.73;;;;;;;26.39;34.68;101768.09;4989031;28;20065;-82
2022/07/09 00:09:03;;;;;;;1.80;1.50;;;;;;;26.31;34.95;101776.50;4988338;28;20050;-82
2022/07/09 00:11:30;;;;;;;1.20;1.10;;;;;;;26.18;35.22;101761.84;4988370;28;20127;-81
2022/07/09 00:13:57;;;;;;;1.27;1.17;;;;;;;25.81;35.06;101703.50;4988585;28;20058;-81
2022/07/09 00:16:24;;;;;;;2.20;1.73;;;;;;;26.13;35.24;101753.50;4988211;28;20050;-80
2022/07/09 00:18:51;;;;;;;2.45;1.73;;;;;;;26.15;35.22;101767.72;4988280;28;20129;-81
2022/07/09 00:21:17;;;;;;;3.55;1.75;;;;;;;25.87;35.51;101718.16;4987792;28;20073;-82
2022/07/09 00:23:44;;;;;;;1.77;1.52;;;;;;;25.56;35.84;101673.41;4988344;28;20108;-82
2022/07/09 00:26:10;;;;;;;3.05;1.92;;;;;;;25.78;36.11;101718.34;4988316;28;20217;-82
2022/07/09 00:28:37;;;;;;;5.88;1.30;;;;;;;25.95;36.21;101766.94;4988151;28;20490;-81
2022/07/09 00:31:04;;;;;;;3.15;1.35;;;;;;;25.75;36.42;101731.53;4988134;28;20054;-81
2022/07/09 00:33:31;;;;;;;1.33;1.20;;;;;;;25.68;36.51;101723.38;4988365;28;20054;-81
2022/07/09 00:35:57;;;;;;;1.55;1.00;;;;;;;24.96;36.45;101621.72;4988324;28;20043;-81
2022/07/09 00:38:24;;;;;;;2.25;1.63;;;;;;;25.75;36.54;101751.41;4987655;28;20504;-81
2022/07/09 00:40:51;;;;;;;3.42;1.52;;;;;;;25.64;36.48;101732.16;4970657;28;20474;-82
2022/07/09 00:43:23;;;;;;;2.15;1.42;;;;;;;25.50;36.90;101726.72;4968463;28;20081;-81
2022/07/09 00:45:51;;;;;;;1.75;1.02;;;;;;;25.60;36.70;101742.63;4968749;28;20498;-81
2022/07/09 00:48:21;;;;;;;1.17;1.08;;;;;;;25.82;36.17;101767.72;4968309;28;20549;-79
2022/07/09 00:50:48;;;;;;;1.20;1.10;;;;;;;24.41;36.19;101562.03;4968329;28;20598;-80
2022/07/09 00:53:16;;;;;;;2.03;0.93;;;;;;;25.78;36.06;101772.75;4975353;28;20503;-82
2022/07/09 00:55:46;;;;;;;3.40;1.00;;;;;;;25.75;35.86;101766.88;4987720;28;20105;-82
2022/07/09 00:58:16;;;;;;;1.67;1.15;;;;;;;25.55;36.17;101740.50;4987633;28;20062;-82
2022/07/09 01:00:43;;;;;;;1.55;1.10;;;;;;;25.61;36.05;101749.75;4987457;28;20233;-81
2022/07/09 01:03:10;;;;;;;2.55;1.20;;;;;;;25.42;36.10;101710.63;4987656;28;20524;-82
2022/07/09 01:05:37;;;;;;;2.20;1.38;;;;;;;25.53;36.31;101734.44;4985995;28;20050;-81
2022/07/09 01:08:05;;;;;;;1.33;1.02;;;;;;;25.65;35.98;101761.03;4987440;28;20339;-81
2022/07/09 01:10:33;;;;;;;2.10;1.10;;;;;;;25.48;36.48;101747.00;4986517;28;20124;-81
2022/07/09 01:13:00;;;;;;;2.60;1.15;;;;;;;25.58;36.38;101766.44;4988237;28;20464;-82
2022/07/09 01:15:27;;;;;;;3.55;1.50;;;;;;;25.45;36.59;101756.41;4987326;28;20046;-83
2022/07/09 01:17:55;;;;;;;3.33;1.20;;;;;;;25.40;36.25;101742.59;4988033;28;20116;-82
2022/07/09 01:20:25;;;;;;;1.65;1.13;;;;;;;25.40;36.65;101748.03;4987139;28;20093;-81
2022/07/09 01:22:52;;;;;;;1.95;1.10;;;;;;;25.42;37.11;101770.41;4986838;28;20508;-81
2022/07/09 01:25:19;;;;;;;3.60;1.17;;;;;;;25.18;37.19;101736.50;4986831;28;20113;-81
2022/07/09 01:27:46;;;;;;;1.75;1.00;;;;;;;25.29;37.53;101763.09;4986597;28;20097;-82
2022/07/09 01:30:23;;;;;;;1.85;1.38;;;;;;;24.99;37.89;101726.41;4987384;28;20062;-81
2022/07/09 01:32:51;;;;;;;1.50;0.98;;;;;;;24.75;37.92;101701.44;4987415;28;20054;-81
2022/07/09 01:35:19;;;;;;;1.73;1.25;;;;;;;25.08;37.86;101760.50;4988005;28;20208;-80
2022/07/09 01:37:50;;;;;;;1.00;1.00;;;;;;;24.98;37.76;101738.28;4986679;28;20139;-81
2022/07/09 01:40:18;;;;;;;1.58;1.05;;;;;;;24.94;37.91;101730.56;4973757;28;20498;-82
2022/07/09 01:42:45;;;;;;;2.65;0.90;;;;;;;25.02;37.28;101728.69;4967255;28;20102;-82
2022/07/09 01:45:11;;;;;;;2.47;0.80;;;;;;;25.23;37.19;101761.19;4967258;28;20050;-81
2022/07/09 01:47:38;;;;;;;2.83;1.35;;;;;;;25.19;37.04;101751.75;4967405;28;20074;-82
2022/07/09 01:50:06;;;;;;;1.88;0.88;;;;;;;25.11;37.24;101754.63;4968477;28;20105;-80
2022/07/09 01:52:33;;;;;;;1.00;0.90;;;;;;;25.05;37.63;101758.16;4968042;28;20047;-81
2022/07/09 01:54:59;;;;;;;1.23;1.13;;;;;;;24.59;37.86;101685.50;4987470;28;20058;-81
2022/07/09 01:57:27;;;;;;;1.65;1.33;;;;;;;24.90;38.03;101748.31;4986162;28;20074;-81
2022/07/09 01:59:54;;;;;;;2.53;1.25;;;;;;;24.80;38.29;101747.84;4985945;28;20409;-81
2022/07/09 02:02:20;;;;;;;1.42;1.10;;;;;;;24.66;38.31;101735.25;4985923;28;20423;-81
2022/07/09 02:04:47;;;;;;;3.53;1.23;;;;;;;24.67;38.54;101748.63;4986291;28;20053;-80
2022/07/09 02:07:14;;;;;;;6.00;1.20;;;;;;;24.70;38.72;101741.97;4986874;28;20099;-80
2022/07/09 02:09:41;;;;;;;1.60;1.10;;;;;;;24.68;38.87;101741.31;4986541;28;20117;-81
2022/07/09 02:12:08;;;;;;;2.10;1.10;;;;;;;24.38;39.13;101700.03;4986177;28;20104;-81
2022/07/09 02:14:35;;;;;;;1.23;1.10;;;;;;;24.63;39.12;101741.91;4987880;28;20046;-81
2022/07/09 02:17:02;;;;;;;1.27;1.10;;;;;;;24.66;39.10;101746.09;4986078;28;20462;-82
2022/07/09 02:19:28;;;;;;;1.50;1.23;;;;;;;24.60;39.13;101736.91;4986299;28;20082;-81
2022/07/09 02:21:55;;;;;;;2.08;1.40;;;;;;;23.67;39.42;101601.53;4986069;28;20066;-81
2022/07/09 02:24:22;;;;;;;5.07;1.35;;;;;;;24.63;39.47;101746.53;4986314;28;20070;-81
2022/07/09 02:26:49;;;;;;;3.55;1.80;;;;;;;24.66;39.43;101735.25;4986183;28;20058;-81
2022/07/09 02:29:15;;;;;;;3.25;1.38;;;;;;;24.82;39.08;101742.22;4986208;28;20387;-81
2022/07/09 02:31:42;;;;;;;1.90;0.90;;;;;;;23.90;38.88;101592.31;4986534;28;20046;-81
2022/07/09 02:34:09;;;;;;;5.25;1.25;;;;;;;24.52;38.65;101663.78;4986138;28;20062;-81
2022/07/09 02:36:35;;;;;;;1.10;1.00;;;;;;;24.75;38.98;101734.03;4986146;28;20081;-81
2022/07/09 02:39:02;;;;;;;3.95;1.52;;;;;;;24.69;39.06;101737.59;4978706;28;20094;-81
2022/07/09 02:41:29;;;;;;;2.15;1.17;;;;;;;24.78;38.97;101739.06;4962945;28;20419;-81
2022/07/09 02:43:56;;;;;;;1.35;1.02;;;;;;;24.60;38.81;101698.06;4947486;29;20055;-81
2022/07/09 02:46:22;;;;;;;2.30;1.40;;;;;;;24.55;38.61;101698.66;4950308;28;20535;-81
2022/07/09 02:48:49;;;;;;;1.58;1.20;;;;;;;24.64;38.60;101726.50;4953645;29;20087;-81
2022/07/09 02:51:16;;;;;;;1.92;1.20;;;;;;;24.75;38.79;101739.47;4973020;28;20511;-80
2022/07/09 02:53:42;;;;;;;1.38;1.27;;;;;;;24.53;38.91;101698.03;4992382;28;20073;-82
2022/07/09 02:56:09;;;;;;;1.35;1.05;;;;;;;24.77;39.11;101736.56;4998689;28;20528;-80
2022/07/09 02:58:36;;;;;;;1.52;0.95;;;;;;;24.24;38.80;101639.44;4986566;28;20568;-80
2022/07/09 03:01:05;;;;;;;1.05;0.95;;;;;;;24.45;39.00;101701.72;4986050;28;20073;-81
2022/07/09 03:03:35;;;;;;;3.47;1.33;;;;;;;24.61;39.18;101730.41;4986140;28;20086;-80
2022/07/09 03:06:07;;;;;;;1.00;0.90;;;;;;;24.28;39.30;101673.25;4986833;28;20050;-81
2022/07/09 03:08:34;;;;;;;1.10;1.00;;;;;;;24.63;39.42;101730.22;4985768;28;20057;-81
2022/07/09 03:11:02;;;;;;;2.83;1.40;;;;;;;24.62;39.68;101739.44;4985441;28;20061;-80
2022/07/09 03:13:29;;;;;;;1.60;1.08;;;;;;;24.57;39.60;101744.63;4986081;28;20042;-81
2022/07/09 03:15:56;;;;;;;3.17;1.23;;;;;;;24.56;39.57;101729.38;4986773;28;20054;-80
2022/07/09 03:18:23;;;;;;;1.73;1.10;;;;;;;24.67;39.36;101726.91;4986706;28;20050;-81
2022/07/09 03:20:50;;;;;;;0.82;0.77;;;;;;;24.67;39.64;101721.47;4986676;28;20050;-81
2022/07/09 03:23:17;;;;;;;1.52;0.98;;;;;;;24.47;39.94;101696.16;4985944;28;20049;-80
2022/07/09 03:25:44;;;;;;;4.38;1.10;;;;;;;24.47;39.98;101705.13;4985583;28;20050;-80
2022/07/09 03:28:11;;;;;;;1.95;1.13;;;;;;;24.50;39.82;101707.41;4985399;28;20050;-80
2022/07/09 03:30:37;;;;;;;2.53;1.33;;;;;;;24.42;40.18;101715.72;4985521;28;20454;-83
2022/07/09 03:33:04;;;;;;;1.45;1.05;;;;;;;24.62;40.36;101728.56;4985322;28;20050;-81
2022/07/09 03:35:31;;;;;;;2.67;1.17;;;;;;;24.76;40.13;101735.72;4985270;28;20391;-80
2022/07/09 03:37:57;;;;;;;2.15;1.15;;;;;;;24.62;40.38;101734.00;4985108;28;20334;-81
2022/07/09 03:40:24;;;;;;;1.60;1.20;;;;;;;23.47;40.85;101565.31;4970405;28;20483;-81
2022/07/09 03:42:51;;;;;;;1.85;1.00;;;;;;;24.51;40.72;101725.38;4966238;28;20063;-81
2022/07/09 03:45:17;;;;;;;1.88;1.20;;;;;;;24.53;41.04;101736.88;4965605;28;20086;-81
2022/07/09 03:47:44;;;;;;;2.80;1.15;;;;;;;24.46;41.05;101716.16;4965946;28;20058;-81
2022/07/09 03:50:12;;;;;;;1.63;1.23;;;;;;;24.31;41.13;101691.84;4965653;28;20042;-80
2022/07/09 03:52:38;;;;;;;2.97;1.00;;;;;;;24.38;41.23;101687.28;4967928;28;20058;-81
2022/07/09 03:55:05;;;;;;;0.95;0.88;;;;;;;24.47;41.56;101734.97;4985121;28;20113;-81
2022/07/09 03:57:32;;;;;;;1.17;1.08;;;;;;;24.42;41.81;101740.13;4985567;28;20046;-80
2022/07/09 03:59:59;;;;;;;4.93;1.52;;;;;;;24.30;41.88;101742.56;4985343;28;20490;-80
2022/07/09 04:02:26;;;;;;;2.50;1.15;;;;;;;24.05;42.51;101701.50;4985409;28;20066;-81
2022/07/09 04:04:56;;;;;;;1.45;0.93;;;;;;;23.94;42.93;101687.69;4985402;28;20057;-80
2022/07/09 04:07:23;;;;;;;2.50;1.27;;;;;;;24.12;42.95;101730.56;4984231;28;20348;-81
2022/07/09 04:09:49;;;;;;;2.17;1.27;;;;;;;24.24;42.96;101745.22;4975266;28;20047;-79
2022/07/09 04:12:16;;;;;;;1.45;1.20;;;;;;;24.23;42.52;101732.72;4963558;28;20051;-82
2022/07/09 04:14:42;;;;;;;2.00;0.98;;;;;;;24.36;42.58;101746.34;4965094;28;20557;-82
2022/07/09 04:17:09;;;;;;;2.97;1.00;;;;;;;24.37;42.58;101748.03;4962134;28;20047;-82
2022/07/09 04:19:36;;;;;;;1.90;1.25;;;;;;;24.29;42.67;101737.34;4948614;28;20412;-82
2022/07/09 04:22:03;;;;;;;5.40;1.30;;;;;;;24.29;42.72;101743.59;4948325;28;20055;-82
2022/07/09 04:24:30;;;;;;;1.40;1.30;;;;;;;24.23;42.55;101703.72;4948400;28;20192;-82
2022/07/09 04:26:56;;;;;;;3.35;1.25;;;;;;;24.59;42.84;101772.38;4949902;28;20086;-82
2022/07/09 04:29:23;;;;;;;0.93;0.93;;;;;;;23.92;42.68;101666.16;4948095;28;20109;-82
2022/07/09 04:31:50;;;;;;;3.33;1.50;;;;;;;24.54;42.81;101786.59;4948773;28;20082;-81
2022/07/09 04:34:17;;;;;;;5.28;1.50;;;;;;;24.18;43.24;101727.06;4948350;28;20495;-81
2022/07/09 04:36:44;;;;;;;1.63;1.33;;;;;;;23.98;43.31;101692.50;4948459;28;20055;-82
2022/07/09 04:39:10;;;;;;;1.00;1.00;;;;;;;24.46;43.58;101771.28;4954599;28;20466;-83
2022/07/09 04:41:40;;;;;;;1.92;1.40;;;;;;;24.43;43.53;101758.09;4967310;28;20055;-82
2022/07/09 04:44:07;;;;;;;1.75;1.40;;;;;;;24.53;44.03;101774.03;4967312;28;20774;-82
2022/07/09 04:46:34;;;;;;;4.80;1.80;;;;;;;24.57;44.49;101786.19;4966873;28;20069;-80
2022/07/09 04:49:00;;;;;;;2.88;1.77;;;;;;;24.36;44.33;101761.81;4954326;28;20420;-82
2022/07/09 04:51:27;;;;;;;1.80;1.40;;;;;;;24.40;45.25;101774.78;4948134;28;20427;-81
2022/07/09 04:53:53;;;;;;;5.90;1.58;;;;;;;24.45;45.28;101790.47;4973018;28;20054;-79
2022/07/09 04:56:20;;;;;;;2.55;1.77;;;;;;;24.56;45.52;101816.22;4987257;28;20144;-82
2022/07/09 04:58:53;;;;;;;2.45;1.73;;;;;;;24.53;45.80;101810.16;4987251;28;20829;-81
2022/07/09 05:01:23;;;;;;;4.13;1.77;;;;;;;24.60;45.75;101814.78;4987267;28;20054;-82
2022/07/09 05:03:50;;;;;;;3.43;1.57;;;;;;;24.58;46.21;101808.72;4987405;28;20050;-82
2022/07/09 05:06:18;;;;;;;3.55;1.88;;;;;;;24.19;45.46;101726.84;4988492;28;20785;-81
2022/07/09 05:08:47;;;;;;;4.63;1.23;;;;;;;24.85;45.12;101813.25;4987056;28;20454;-83
2022/07/09 05:11:14;;;;;;;4.95;1.15;;;;;;;24.93;45.35;101807.66;4987473;28;20058;-80
2022/07/09 05:13:46;;;;;;;2.10;1.30;;;;;;;25.04;44.93;101802.69;4987581;28;20052;-81
2022/07/09 05:16:13;;;;;;;1.45;1.30;;;;;;;24.78;45.00;101758.06;4988083;28;20092;-82
2022/07/09 05:18:39;;;;;;;1.80;1.45;;;;;;;25.00;44.27;101769.66;4987120;28;20086;-80
2022/07/09 05:21:06;;;;;;;3.85;1.40;;;;;;;24.69;44.67;101702.28;4987547;28;20081;-83
2022/07/09 05:23:33;;;;;;;5.68;1.83;;;;;;;25.33;44.16;101791.50;4988005;28;20057;-79
2022/07/09 05:26:00;;;;;;;4.60;1.85;;;;;;;25.46;44.20;101785.25;4985568;28;20113;-81
2022/07/09 05:28:29;;;;;;;2.72;1.40;;;;;;;25.25;43.49;101739.25;4974459;28;20402;-80
2022/07/09 05:30:56;;;;;;;1.80;1.52;;;;;;;25.54;43.20;101766.03;4958282;28;20499;-81
2022/07/09 05:33:43;;;;;;;5.05;1.55;;;;;;;25.75;43.43;101789.50;4966862;28;20058;-81
2022/07/09 05:36:17;;;;;;;7.82;1.65;;;;;;;25.22;43.10;101702.44;4968099;28;20535;-80
2022/07/09 05:38:44;;;;;;;1.50;1.33;;;;;;;25.27;42.91;101689.06;4972699;28;20109;-80
2022/07/09 05:41:11;;;;;;;4.38;1.83;;;;;;;26.16;42.43;101801.22;4972533;28;20117;-80
2022/07/09 05:43:38;;;;;;;3.95;1.50;;;;;;;26.19;42.25;101792.63;4971690;28;20150;-81
2022/07/09 05:46:04;;;;;;;8.38;1.67;;;;;;;26.26;41.92;101801.63;4970908;28;20047;-81
2022/07/09 05:48:31;;;;;;;124.68;56.90;;;;;;;26.30;41.99;101802.88;4970339;28;20059;-80
2022/07/09 05:50:58;;;;;;;3.90;1.98;;;;;;;26.26;42.24;101789.91;4970967;28;20109;-81
2022/07/09 05:53:25;;;;;;;5.18;1.40;;;;;;;26.36;41.80;101788.44;4979142;28;20490;-81
2022/07/09 05:55:51;;;;;;;3.25;1.70;;;;;;;25.97;41.79;101716.69;4990131;28;20054;-80
2022/07/09 05:58:18;;;;;;;2.03;1.40;;;;;;;26.01;41.30;101714.38;4990227;28;20050;-81
2022/07/09 06:00:45;;;;;;;10.25;1.48;;;;;;;26.52;40.60;101778.94;4990386;28;20344;-79
2022/07/09 06:03:11;;;;;;;2.95;1.75;;;;;;;26.12;40.46;101691.97;4990733;28;20421;-80
2022/07/09 06:05:38;;;;;;;5.82;2.33;;;;;;;26.61;40.50;101768.69;4991445;28;20061;-81
2022/07/09 06:08:05;;;;;;;5.00;1.58;;;;;;;26.53;40.10;101741.66;4990047;28;20046;-80
2022/07/09 06:10:32;;;;;;;4.93;1.45;;;;;;;26.16;40.13;101681.47;4989303;28;20100;-82
2022/07/09 06:12:58;;;;;;;3.90;1.42;;;;;;;26.64;39.85;101760.94;4989912;28;20062;-81
2022/07/09 06:15:25;;;;;;;2.53;1.42;;;;;;;26.56;39.55;101725.78;4989673;28;20061;-81
2022/07/09 06:17:52;;;;;;;4.18;1.70;;;;;;;26.92;39.53;101792.47;4991899;28;20050;-80
2022/07/09 06:20:19;;;;;;;3.70;1.20;;;;;;;26.86;39.31;101771.53;4990370;28;20116;-81
2022/07/09 06:22:46;;;;;;;5.43;1.83;;;;;;;27.00;39.77;101797.66;4990479;28;20117;-80
2022/07/09 06:25:13;;;;;;;6.93;1.27;;;;;;;27.07;39.73;101805.81;4991903;28;20082;-80
2022/07/09 06:27:41;;;;;;;10.38;1.63;;;;;;;26.31;39.29;101673.91;4990527;28;20053;-79
2022/07/09 06:30:08;;;;;;;6.00;1.20;;;;;;;26.62;38.94;101713.16;4991067;28;20113;-80
2022/07/09 06:32:35;;;;;;;8.50;1.60;;;;;;;27.18;38.84;101801.56;4990528;28;20502;-78
2022/07/09 06:35:02;;;;;;;5.22;0.95;;;;;;;26.69;39.09;101740.38;4991687;28;20453;-81
2022/07/09 06:37:29;;;;;;;4.35;1.23;;;;;;;26.73;39.02;101741.63;4990448;28;20056;-82
2022/07/09 06:39:59;;;;;;;5.47;1.45;;;;;;;27.20;38.78;101813.13;4980114;28;20126;-83
2022/07/09 06:42:26;;;;;;;3.67;1.90;;;;;;;26.82;38.83;101771.13;4970558;28;20047;-81
2022/07/09 06:45:02;;;;;;;10.27;1.65;;;;;;;27.20;38.86;101810.38;4970941;28;20066;-83
2022/07/09 06:47:30;;;;;;;5.57;1.55;;;;;;;27.27;38.37;101811.19;4969922;28;20414;-82
2022/07/09 06:49:57;;;;;;;5.40;1.77;;;;;;;27.16;38.67;101784.56;4969684;28;20050;-82
2022/07/09 06:52:23;;;;;;;8.45;1.70;;;;;;;27.35;38.44;101823.72;4972161;28;20078;-83
2022/07/09 06:54:50;;;;;;;3.92;1.55;;;;;;;27.16;38.67;101787.31;4992248;28;20494;-83
2022/07/09 06:57:17;;;;;;;5.85;1.27;;;;;;;27.04;38.67;101760.75;4990437;28;20146;-83
2022/07/09 06:59:47;;;;;;;4.45;1.48;;;;;;;27.02;38.81;101764.75;4991729;28;20057;-83
2022/07/09 07:02:17;;;;;;;3.17;1.45;;;;;;;26.58;38.57;101682.84;4989654;28;20054;-83
2022/07/09 07:04:46;;;;;;;8.65;1.92;;;;;;;27.17;39.05;101789.00;4990243;28;20109;-83
2022/07/09 07:07:13;;;;;;;2.85;1.38;;;;;;;26.09;39.27;101613.47;4990254;28;20056;-82
2022/07/09 07:09:40;;;;;;;8.15;1.50;;;;;;;27.41;38.76;101814.69;4990652;28;20072;-81
2022/07/09 07:12:07;;;;;;;4.70;1.85;;;;;;;26.74;39.11;101710.59;4993422;28;20046;-83
2022/07/09 07:14:33;;;;;;;4.65;1.50;;;;;;;27.54;38.65;101820.03;5000660;28;20050;-83
2022/07/09 07:17:00;;;;;;;5.72;1.80;;;;;;;27.54;38.67;101792.75;5007440;28;20054;-84
2022/07/09 07:19:27;;;;;;;7.13;1.58;;;;;;;27.60;38.24;101797.34;5012314;28;20081;-85
2022/07/09 07:21:54;;;;;;;7.43;1.40;;;;;;;27.64;38.51;101814.91;4994797;28;20046;-83
2022/07/09 07:24:21;;;;;;;5.03;1.70;;;;;;;27.71;38.19;101823.06;5004604;28;20050;-83
2022/07/09 07:26:47;;;;;;;6.53;1.38;;;;;;;27.70;37.90;101791.41;5006916;28;20053;-83
2022/07/09 07:29:14;;;;;;;3.80;2.28;;;;;;;27.37;38.60;101787.00;4997777;28;20058;-83
2022/07/09 07:31:41;;;;;;;2.65;1.88;;;;;;;27.37;38.55;101795.19;4992916;28;20062;-84
2022/07/09 07:34:08;;;;;;;4.05;1.17;;;;;;;26.64;38.22;101679.22;4992194;28;20058;-83
2022/07/09 07:36:38;;;;;;;4.32;1.85;;;;;;;27.52;38.59;101815.84;4991085;28;20446;-82
2022/07/09 07:39:05;;;;;;;3.72;1.65;;;;;;;27.39;38.58;101776.72;4986009;28;20133;-82
2022/07/09 07:41:32;;;;;;;5.80;1.50;;;;;;;27.70;38.04;101814.06;4970465;28;20050;-82
2022/07/09 07:43:59;;;;;;;9.00;2.15;;;;;;;27.70;37.55;101818.69;4970548;28;20062;-81
2022/07/09 07:46:25;;;;;;;5.55;1.60;;;;;;;27.87;36.84;101811.66;4970022;28;20063;-81
2022/07/09 07:48:52;;;;;;;7.00;1.67;;;;;;;27.20;37.03;101682.28;4970110;28;20051;-81
2022/07/09 07:51:19;;;;;;;3.10;1.50;;;;;;;27.95;36.83;101798.78;4973249;28;20097;-82
2022/07/09 07:53:45;;;;;;;5.50;1.77;;;;;;;27.75;36.64;101766.19;4984426;28;20137;-80
2022/07/09 07:56:12;;;;;;;7.78;2.15;;;;;;;27.58;37.04;101763.19;4993753;28;20050;-81
2022/07/09 07:58:39;;;;;;;9.10;1.60;;;;;;;27.36;36.69;101728.09;4994168;28;20058;-82
2022/07/09 08:01:05;;;;;;;5.50;1.80;;;;;;;27.99;37.29;101821.81;4992718;28;20046;-81
2022/07/09 08:03:32;;;;;;;5.63;2.15;;;;;;;28.08;36.09;101802.22;4992387;28;20065;-82
2022/07/09 08:06:00;;;;;;;9.55;1.65;;;;;;;28.29;35.49;101811.06;4993141;28;20477;-81
2022/07/09 08:08:27;;;;;;;4.15;1.77;;;;;;;27.71;35.26;101713.94;4993180;28;20053;-80
2022/07/09 08:10:54;;;;;;;5.10;1.75;;;;;;;28.30;35.50;101810.00;4992993;28;20478;-81
2022/07/09 08:13:20;;;;;;;9.98;1.95;;;;;;;28.38;35.73;101803.44;4993361;28;20130;-81
2022/07/09 08:15:47;;;;;;;4.25;1.65;;;;;;;28.23;34.59;101784.66;4994196;28;20533;-80
2022/07/09 08:18:14;;;;;;;6.95;1.95;;;;;;;28.33;34.64;101790.44;4993287;28;20050;-81
2022/07/09 08:20:42;;;;;;;2.38;2.15;;;;;;;28.42;34.76;101804.63;4992783;28;20498;-81
2022/07/09 08:23:09;;;;;;;3.78;1.65;;;;;;;28.32;34.68;101778.66;4992939;28;20205;-80
2022/07/09 08:25:36;;;;;;;6.22;1.95;;;;;;;28.37;34.84;101802.56;4993074;28;20058;-81
2022/07/09 08:28:04;;;;;;;3.08;1.85;;;;;;;27.87;34.85;101715.31;4992947;28;20062;-80
2022/07/09 08:30:31;;;;;;;7.03;2.28;;;;;;;28.26;35.05;101782.31;4993991;28;20088;-81
2022/07/09 08:32:57;;;;;;;4.28;1.88;;;;;;;28.40;33.91;101752.97;4992997;28;20050;-81
2022/07/09 08:35:25;;;;;;;3.05;2.00;;;;;;;28.67;33.84;101799.97;4992575;28;20046;-80
2022/07/09 08:37:53;;;;;;;3.80;2.22;;;;;;;28.27;33.37;101743.00;4993921;28;20046;-81
2022/07/09 08:40:21;;;;;;;3.78;1.63;;;;;;;28.13;33.71;101741.47;4979373;28;20141;-80
2022/07/09 08:42:49;;;;;;;7.63;1.65;;;;;;;28.43;34.17;101779.00;4972876;28;20102;-81
2022/07/09 08:45:17;;;;;;;6.28;1.80;;;;;;;28.60;33.83;101768.34;4973168;28;20057;-80
2022/07/09 08:47:46;;;;;;;6.85;1.85;;;;;;;28.69;33.59;101797.84;4972990;28;20042;-82
2022/07/09 08:50:13;;;;;;;3.35;1.60;;;;;;;28.09;33.68;101696.63;4972621;28;20455;-81
2022/07/09 08:52:41;;;;;;;4.53;1.92;;;;;;;28.83;33.91;101794.94;4975166;28;20114;-81
2022/07/09 08:55:09;;;;;;;6.03;2.42;;;;;;;28.96;32.94;101786.59;4991855;28;20053;-81
2022/07/09 08:57:36;;;;;;;5.32;1.83;;;;;;;28.26;33.64;101681.28;4991352;28;20058;-81
2022/07/09 09:00:04;;;;;;;3.13;1.98;;;;;;;28.84;33.74;101781.06;4992359;28;20055;-82
2022/07/09 09:02:36;;;;;;;4.20;1.75;;;;;;;29.06;32.54;101795.09;4991721;28;20051;-81
2022/07/09 09:05:12;;;;;;;6.68;1.63;;;;;;;28.19;32.09;101661.44;4992106;28;20046;-81
2022/07/09 09:07:39;;;;;;;2.33;1.30;;;;;;;28.58;32.75;101743.97;4991930;28;20058;-83
2022/07/09 09:10:06;;;;;;;4.57;1.67;;;;;;;28.68;33.32;101754.34;4992742;28;20126;-82
2022/07/09 09:12:33;;;;;;;4.07;1.75;;;;;;;28.88;33.39;101776.78;4992021;28;20671;-81
2022/07/09 09:15:05;;;;;;;4.75;1.70;;;;;;;28.94;33.33;101754.00;4991722;28;20046;-82
2022/07/09 09:17:32;;;;;;;4.07;2.33;;;;;;;29.12;33.23;101761.34;4992158;28;20411;-80
2022/07/09 09:20:00;;;;;;;4.70;1.92;;;;;;;29.28;33.00;101773.53;4991926;28;20065;-81
2022/07/09 09:22:27;;;;;;;2.63;1.45;;;;;;;29.38;32.37;101765.59;4991346;28;20051;-82
2022/07/09 09:24:54;;;;;;;4.50;1.50;;;;;;;29.44;32.46;101772.03;4993107;28;20046;-81
2022/07/09 09:27:30;;;;;;;3.28;1.45;;;;;;;28.90;31.85;101667.25;4991637;28;20469;-80
2022/07/09 09:30:05;;;;;;;7.95;1.95;;;;;;;29.11;31.38;101699.53;4991926;28;20430;-79
2022/07/09 09:32:32;;;;;;;3.28;1.60;;;;;;;29.27;32.06;101730.00;4990838;28;20364;-81
2022/07/09 09:35:02;;;;;;;3.25;1.77;;;;;;;29.27;32.28;101741.78;4991543;28;20062;-79
2022/07/09 09:37:29;;;;;;;1.70;1.60;;;;;;;29.11;32.73;101702.28;4992152;28;20505;-78
2022/07/09 09:39:56;;;;;;;5.88;2.03;;;;;;;29.70;32.73;101767.25;4982777;28;20137;-78
2022/07/09 09:42:27;;;;;;;4.22;1.77;;;;;;;29.75;32.40;101765.44;4971900;28;20053;-81
2022/07/09 09:44:59;;;;;;;4.95;1.55;;;;;;;29.69;31.92;101739.06;4971858;28;20051;-82
2022/07/09 09:47:27;;;;;;;4.47;2.08;;;;;;;29.93;31.43;101733.56;4972170;28;20102;-82
2022/07/09 09:49:57;;;;;;;3.05;1.95;;;;;;;29.42;31.40;101644.78;4971532;28;20358;-82
2022/07/09 09:52:24;;;;;;;3.55;2.10;;;;;;;30.32;30.70;101758.56;4972184;28;20050;-82
2022/07/09 09:54:52;;;;;;;5.18;1.65;;;;;;;29.99;30.78;101703.34;4991208;28;20532;-82
2022/07/09 09:57:24;;;;;;;6.00;1.90;;;;;;;30.27;30.87;101739.28;4992585;28;20050;-81
2022/07/09 09:59:52;;;;;;;2.65;1.70;;;;;;;29.38;31.13;101595.19;4992108;28;20094;-82
2022/07/09 10:02:20;;;;;;;3.88;1.70;;;;;;;30.52;30.90;101755.44;4989445;28;20073;-82
2022/07/09 10:04:47;;;;;;;3.47;2.10;;;;;;;30.35;30.56;101728.78;4989233;28;20054;-83
2022/07/09 10:07:15;;;;;;;3.55;1.88;;;;;;;30.58;30.14;101749.81;4990569;28;20454;-80
2022/07/09 10:09:57;;;;;;;4.45;2.30;;;;;;;30.53;30.31;101746.13;4990985;28;20042;-81
2022/07/09 10:12:33;;;;;;;8.77;2.25;;;;;;;30.55;29.78;101733.03;4989583;28;20414;-82
2022/07/09 10:15:01;;;;;;;2.75;2.13;;;;;;;30.40;29.36;101689.72;4990308;28;20047;-82
2022/07/09 10:17:27;;;;;;;2.28;1.50;;;;;;;30.36;28.39;101656.50;4990576;28;20070;-83
2022/07/09 10:20:03;;;;;;;5.50;1.60;;;;;;;30.87;29.14;101738.91;4990557;28;20525;-81
2022/07/09 10:22:35;;;;;;;2.53;1.77;;;;;;;30.78;29.14;101719.25;4990498;28;20053;-77
2022/07/09 10:25:03;;;;;;;4.22;1.73;;;;;;;31.00;29.15;101727.66;4990608;28;20046;-81
2022/07/09 10:27:41;;;;;;;3.08;2.10;;;;;;;31.18;28.75;101723.84;4990513;28;20054;-82
2022/07/09 10:30:08;;;;;;;2.85;1.67;;;;;;;31.20;28.03;101724.44;4990358;28;20487;-82
2022/07/09 10:32:41;;;;;;;4.72;1.75;;;;;;;31.71;27.69;101743.69;4990360;28;20046;-82
2022/07/09 10:35:08;;;;;;;8.32;2.17;;;;;;;31.38;28.05;101684.13;4990480;28;20050;-82
2022/07/09 10:37:34;;;;;;;4.50;2.28;;;;;;;31.88;27.98;101736.28;4990390;28;20058;-82
2022/07/09 10:40:09;;;;;;;2.13;1.77;;;;;;;31.88;27.22;101739.03;4974984;28;20055;-82
2022/07/09 10:42:36;;;;;;;2.47;1.52;;;;;;;31.77;27.12;101692.44;4967113;28;20105;-83
2022/07/09 10:45:35;;;;;;;2.72;1.85;;;;;;;31.85;27.54;101692.03;4951515;29;20051;-82
2022/07/09 10:48:05;;;;;;;3.15;1.70;;;;;;;31.47;26.44;101600.34;4944741;29;20048;-82
2022/07/09 10:50:36;;;;;;;1.50;1.40;;;;;;;32.25;26.45;101737.63;4967335;28;20051;-82
2022/07/09 10:53:05;;;;;;;2.83;1.70;;;;;;;32.20;26.96;101690.88;4963376;28;20043;-82
2022/07/09 10:55:32;;;;;;;1.67;1.58;;;;;;;32.19;27.01;101694.69;4989637;28;20077;-81
2022/07/09 10:58:00;;;;;;;7.75;1.90;;;;;;;31.94;26.96;101643.81;4990115;28;20142;-80
2022/07/09 11:00:29;;;;;;;4.95;1.92;;;;;;;31.67;27.07;101600.63;4991136;28;20098;-82
2022/07/09 11:03:03;;;;;;;4.75;1.90;;;;;;;32.31;26.89;101665.19;4989617;28;20121;-80
2022/07/09 11:05:42;;;;;;;5.35;1.95;;;;;;;32.05;27.44;101609.13;4989764;28;20073;-81
2022/07/09 11:08:10;;;;;;;6.00;2.45;;;;;;;32.68;27.58;101664.53;4981111;28;20116;-81
2022/07/09 11:10:39;;;;;;;3.75;2.00;;;;;;;32.80;27.46;101623.97;4973267;28;20062;-82
2022/07/09 11:13:08;;;;;;;5.20;2.20;;;;;;;33.19;26.78;101682.38;4971040;28;20057;-82
2022/07/09 11:15:37;;;;;;;2.80;1.33;;;;;;;33.16;27.13;101701.34;4969815;28;20055;-82
2022/07/09 11:18:08;;;;;;;4.32;1.88;;;;;;;33.23;27.12;101698.34;4970854;28;20062;-83
2022/07/09 11:20:46;;;;;;;2.70;1.60;;;;;;;32.14;27.40;101552.66;4970356;28;20054;-82
2022/07/09 11:23:14;;;;;;;3.20;1.92;;;;;;;33.13;26.97;101685.34;4971311;28;20055;-82
2022/07/09 11:25:43;;;;;;;7.78;2.22;;;;;;;33.30;26.81;101690.69;4973069;28;20101;-82
2022/07/09 11:28:20;;;;;;;3.30;1.45;;;;;;;33.32;26.70;101692.09;4974103;28;20538;-82